sensor_id;sensor_type;location;lat;lon;timestamp;P1;durP1;ratioP1;P2;durP2;ratioP2
67195;SDS011;54122;53.538;49.366;2023-09-19T00:00:43;11.05;;;3.90;;
67195;SDS011;54122;53.538;49.366;2023-09-19T00:03:12;9.38;;;4.43;;
67195;SDS011;54122;53.538;49.366;2023-09-19T00:05:39;8.90;;;4.10;;
67195;SDS011;54122;53.538;49.366;2023-09-19T00:08:05;6.65;;;3.50;;
67195;SDS011;54122;53.538;49.366;2023-09-19T00:10:32;9.20;;;4.70;;
67195;SDS011;54122;53.538;49.366;2023-09-19T00:13:00;7.03;;;4.45;;
67195;SDS011;54122;53.538;49.366;2023-09-19T00:15:31;7.72;;;3.90;;
67195;SDS011;54122;53.538;49.366;2023-09-19T00:18:14;12.20;;;4.50;;
67195;SDS011;54122;53.538;49.366;2023-09-19T00:23:15;9.43;;;4.35;;
67195;SDS011;54122;53.538;49.366;2023-09-19T00:25:41;7.65;;;3.83;;
67195;SDS011;54122;53.538;49.366;2023-09-19T00:28:07;10.60;;;4.38;;
67195;SDS011;54122;53.538;49.366;2023-09-19T00:30:34;12.68;;;4.95;;
67195;SDS011;54122;53.538;49.366;2023-09-19T00:33:00;9.75;;;5.05;;
67195;SDS011;54122;53.538;49.366;2023-09-19T00:35:31;11.00;;;4.43;;
67195;SDS011;54122;53.538;49.366;2023-09-19T00:37:57;8.48;;;4.13;;
67195;SDS011;54122;53.538;49.366;2023-09-19T00:40:23;10.65;;;4.63;;
67195;SDS011;54122;53.538;49.366;2023-09-19T00:42:49;12.75;;;4.10;;
67195;SDS011;54122;53.538;49.366;2023-09-19T00:45:16;10.52;;;4.85;;
67195;SDS011;54122;53.538;49.366;2023-09-19T00:47:44;9.18;;;4.50;;
67195;SDS011;54122;53.538;49.366;2023-09-19T00:50:15;6.65;;;3.88;;
67195;SDS011;54122;53.538;49.366;2023-09-19T00:52:52;8.65;;;4.32;;
67195;SDS011;54122;53.538;49.366;2023-09-19T00:55:23;9.55;;;5.05;;
67195;SDS011;54122;53.538;49.366;2023-09-19T00:57:50;11.07;;;5.00;;
67195;SDS011;54122;53.538;49.366;2023-09-19T01:00:18;8.02;;;3.92;;
67195;SDS011;54122;53.538;49.366;2023-09-19T01:02:45;8.18;;;4.03;;
67195;SDS011;54122;53.538;49.366;2023-09-19T01:05:12;9.18;;;4.05;;
67195;SDS011;54122;53.538;49.366;2023-09-19T01:07:38;9.00;;;4.22;;
67195;SDS011;54122;53.538;49.366;2023-09-19T01:10:17;12.35;;;4.45;;
67195;SDS011;54122;53.538;49.366;2023-09-19T01:12:51;11.75;;;5.20;;
67195;SDS011;54122;53.538;49.366;2023-09-19T01:15:32;13.43;;;4.43;;
67195;SDS011;54122;53.538;49.366;2023-09-19T01:29:43;11.07;;;4.43;;
67195;SDS011;54122;53.538;49.366;2023-09-19T01:34:47;12.15;;;5.00;;
67195;SDS011;54122;53.538;49.366;2023-09-19T01:37:16;8.00;;;3.45;;
67195;SDS011;54122;53.538;49.366;2023-09-19T01:39:46;8.98;;;4.53;;
67195;SDS011;54122;53.538;49.366;2023-09-19T01:52:46;7.40;;;3.70;;
67195;SDS011;54122;53.538;49.366;2023-09-19T01:55:16;17.17;;;4.15;;
67195;SDS011;54122;53.538;49.366;2023-09-19T01:57:48;6.70;;;3.88;;
67195;SDS011;54122;53.538;49.366;2023-09-19T02:00:20;7.82;;;3.83;;
67195;SDS011;54122;53.538;49.366;2023-09-19T02:02:49;8.32;;;3.55;;
67195;SDS011;54122;53.538;49.366;2023-09-19T02:05:23;5.95;;;3.60;;
67195;SDS011;54122;53.538;49.366;2023-09-19T02:07:50;12.43;;;3.55;;
67195;SDS011;54122;53.538;49.366;2023-09-19T02:10:18;13.38;;;4.43;;
67195;SDS011;54122;53.538;49.366;2023-09-19T02:12:44;17.88;;;4.63;;
67195;SDS011;54122;53.538;49.366;2023-09-19T02:15:10;8.23;;;3.47;;
67195;SDS011;54122;53.538;49.366;2023-09-19T02:17:37;10.27;;;4.43;;
67195;SDS011;54122;53.538;49.366;2023-09-19T02:20:03;9.07;;;4.68;;
67195;SDS011;54122;53.538;49.366;2023-09-19T02:22:42;8.80;;;4.50;;
67195;SDS011;54122;53.538;49.366;2023-09-19T02:25:09;6.95;;;3.92;;
67195;SDS011;54122;53.538;49.366;2023-09-19T02:27:36;10.77;;;4.68;;
67195;SDS011;54122;53.538;49.366;2023-09-19T02:30:03;9.43;;;4.18;;
67195;SDS011;54122;53.538;49.366;2023-09-19T02:32:31;13.30;;;5.03;;
67195;SDS011;54122;53.538;49.366;2023-09-19T02:35:01;11.73;;;4.60;;
67195;SDS011;54122;53.538;49.366;2023-09-19T02:37:27;14.35;;;4.45;;
67195;SDS011;54122;53.538;49.366;2023-09-19T02:39:53;13.48;;;4.82;;
67195;SDS011;54122;53.538;49.366;2023-09-19T02:42:20;13.32;;;5.47;;
67195;SDS011;54122;53.538;49.366;2023-09-19T02:44:46;12.88;;;4.93;;
67195;SDS011;54122;53.538;49.366;2023-09-19T02:47:13;8.88;;;5.43;;
67195;SDS011;54122;53.538;49.366;2023-09-19T02:49:40;10.90;;;5.50;;
67195;SDS011;54122;53.538;49.366;2023-09-19T02:52:08;11.10;;;5.95;;
67195;SDS011;54122;53.538;49.366;2023-09-19T02:54:34;18.48;;;6.15;;
67195;SDS011;54122;53.538;49.366;2023-09-19T02:57:00;8.52;;;5.35;;
67195;SDS011;54122;53.538;49.366;2023-09-19T02:59:26;12.38;;;5.10;;
67195;SDS011;54122;53.538;49.366;2023-09-19T03:01:54;11.95;;;5.95;;
67195;SDS011;54122;53.538;49.366;2023-09-19T03:04:20;9.30;;;4.68;;
67195;SDS011;54122;53.538;49.366;2023-09-19T03:06:46;11.38;;;5.05;;
67195;SDS011;54122;53.538;49.366;2023-09-19T03:09:14;10.00;;;5.35;;
67195;SDS011;54122;53.538;49.366;2023-09-19T03:11:41;9.82;;;5.68;;
67195;SDS011;54122;53.538;49.366;2023-09-19T03:14:08;10.68;;;4.55;;
67195;SDS011;54122;53.538;49.366;2023-09-19T03:16:35;8.07;;;4.85;;
67195;SDS011;54122;53.538;49.366;2023-09-19T03:19:03;13.60;;;5.15;;
67195;SDS011;54122;53.538;49.366;2023-09-19T03:21:29;15.15;;;4.65;;
67195;SDS011;54122;53.538;49.366;2023-09-19T03:23:56;27.70;;;5.53;;
67195;SDS011;54122;53.538;49.366;2023-09-19T03:26:22;8.23;;;4.85;;
67195;SDS011;54122;53.538;49.366;2023-09-19T03:28:48;7.43;;;4.32;;
67195;SDS011;54122;53.538;49.366;2023-09-19T03:31:14;10.07;;;4.78;;
67195;SDS011;54122;53.538;49.366;2023-09-19T03:33:40;7.85;;;4.65;;
67195;SDS011;54122;53.538;49.366;2023-09-19T03:36:06;32.80;;;5.55;;
67195;SDS011;54122;53.538;49.366;2023-09-19T03:38:33;14.75;;;5.10;;
67195;SDS011;54122;53.538;49.366;2023-09-19T03:41:00;7.43;;;4.55;;
67195;SDS011;54122;53.538;49.366;2023-09-19T03:43:27;6.53;;;4.40;;
67195;SDS011;54122;53.538;49.366;2023-09-19T03:45:53;12.25;;;4.95;;
67195;SDS011;54122;53.538;49.366;2023-09-19T03:48:20;18.25;;;5.20;;
67195;SDS011;54122;53.538;49.366;2023-09-19T03:50:47;10.38;;;3.97;;
67195;SDS011;54122;53.538;49.366;2023-09-19T03:53:13;12.95;;;4.75;;
67195;SDS011;54122;53.538;49.366;2023-09-19T03:55:39;12.00;;;4.95;;
67195;SDS011;54122;53.538;49.366;2023-09-19T03:58:05;18.27;;;5.68;;
67195;SDS011;54122;53.538;49.366;2023-09-19T04:00:32;9.93;;;4.78;;
67195;SDS011;54122;53.538;49.366;2023-09-19T04:02:59;12.10;;;4.78;;
67195;SDS011;54122;53.538;49.366;2023-09-19T04:05:30;13.05;;;4.47;;
67195;SDS011;54122;53.538;49.366;2023-09-19T04:07:57;14.82;;;6.00;;
67195;SDS011;54122;53.538;49.366;2023-09-19T04:10:23;13.05;;;4.88;;
67195;SDS011;54122;53.538;49.366;2023-09-19T04:12:55;7.63;;;4.00;;
67195;SDS011;54122;53.538;49.366;2023-09-19T04:15:22;10.20;;;4.63;;
67195;SDS011;54122;53.538;49.366;2023-09-19T04:17:49;14.40;;;4.75;;
67195;SDS011;54122;53.538;49.366;2023-09-19T04:20:17;10.70;;;4.55;;
67195;SDS011;54122;53.538;49.366;2023-09-19T04:22:45;9.20;;;4.28;;
67195;SDS011;54122;53.538;49.366;2023-09-19T04:25:12;12.88;;;3.92;;
67195;SDS011;54122;53.538;49.366;2023-09-19T04:27:38;7.80;;;3.22;;
67195;SDS011;54122;53.538;49.366;2023-09-19T04:30:06;10.00;;;2.72;;
67195;SDS011;54122;53.538;49.366;2023-09-19T04:32:36;13.57;;;2.58;;
67195;SDS011;54122;53.538;49.366;2023-09-19T04:35:08;6.20;;;3.40;;
67195;SDS011;54122;53.538;49.366;2023-09-19T04:37:36;8.25;;;2.53;;
67195;SDS011;54122;53.538;49.366;2023-09-19T04:40:07;5.00;;;2.77;;
67195;SDS011;54122;53.538;49.366;2023-09-19T04:42:38;8.65;;;2.92;;
67195;SDS011;54122;53.538;49.366;2023-09-19T04:45:06;6.32;;;2.92;;
67195;SDS011;54122;53.538;49.366;2023-09-19T04:47:35;9.15;;;2.95;;
67195;SDS011;54122;53.538;49.366;2023-09-19T04:50:05;4.78;;;2.80;;
67195;SDS011;54122;53.538;49.366;2023-09-19T04:52:33;6.22;;;3.13;;
67195;SDS011;54122;53.538;49.366;2023-09-19T04:54:59;14.10;;;2.83;;
67195;SDS011;54122;53.538;49.366;2023-09-19T04:57:25;4.68;;;2.70;;
67195;SDS011;54122;53.538;49.366;2023-09-19T04:59:53;5.63;;;2.22;;
67195;SDS011;54122;53.538;49.366;2023-09-19T05:02:19;5.43;;;2.95;;
67195;SDS011;54122;53.538;49.366;2023-09-19T05:04:45;9.80;;;2.95;;
67195;SDS011;54122;53.538;49.366;2023-09-19T05:07:12;5.30;;;3.05;;
67195;SDS011;54122;53.538;49.366;2023-09-19T05:09:38;5.78;;;3.13;;
67195;SDS011;54122;53.538;49.366;2023-09-19T05:12:04;9.23;;;4.70;;
67195;SDS011;54122;53.538;49.366;2023-09-19T05:14:31;10.35;;;3.53;;
67195;SDS011;54122;53.538;49.366;2023-09-19T05:16:57;4.60;;;2.58;;
67195;SDS011;54122;53.538;49.366;2023-09-19T05:19:23;10.57;;;3.72;;
67195;SDS011;54122;53.538;49.366;2023-09-19T05:21:49;7.93;;;4.13;;
67195;SDS011;54122;53.538;49.366;2023-09-19T05:24:15;8.75;;;3.70;;
67195;SDS011;54122;53.538;49.366;2023-09-19T05:26:42;18.30;;;5.53;;
67195;SDS011;54122;53.538;49.366;2023-09-19T05:29:08;8.00;;;2.88;;
67195;SDS011;54122;53.538;49.366;2023-09-19T05:31:34;11.50;;;4.47;;
67195;SDS011;54122;53.538;49.366;2023-09-19T05:34:06;10.73;;;2.90;;
67195;SDS011;54122;53.538;49.366;2023-09-19T05:36:32;3.50;;;2.10;;
67195;SDS011;54122;53.538;49.366;2023-09-19T05:38:59;4.03;;;2.28;;
67195;SDS011;54122;53.538;49.366;2023-09-19T05:41:25;4.32;;;2.20;;
67195;SDS011;54122;53.538;49.366;2023-09-19T05:43:51;8.00;;;2.75;;
67195;SDS011;54122;53.538;49.366;2023-09-19T05:46:18;4.30;;;2.40;;
67195;SDS011;54122;53.538;49.366;2023-09-19T05:48:44;10.20;;;2.20;;
67195;SDS011;54122;53.538;49.366;2023-09-19T05:51:13;3.75;;;2.00;;
67195;SDS011;54122;53.538;49.366;2023-09-19T05:53:39;3.95;;;1.90;;
67195;SDS011;54122;53.538;49.366;2023-09-19T05:56:08;7.70;;;2.05;;
67195;SDS011;54122;53.538;49.366;2023-09-19T05:58:36;4.80;;;2.13;;
67195;SDS011;54122;53.538;49.366;2023-09-19T06:01:02;3.63;;;2.22;;
67195;SDS011;54122;53.538;49.366;2023-09-19T06:03:29;4.88;;;2.33;;
67195;SDS011;54122;53.538;49.366;2023-09-19T06:05:59;3.85;;;2.10;;
67195;SDS011;54122;53.538;49.366;2023-09-19T06:08:25;5.63;;;2.35;;
67195;SDS011;54122;53.538;49.366;2023-09-19T06:10:51;4.28;;;2.20;;
67195;SDS011;54122;53.538;49.366;2023-09-19T06:13:17;3.15;;;1.85;;
67195;SDS011;54122;53.538;49.366;2023-09-19T06:15:45;2.25;;;1.35;;
67195;SDS011;54122;53.538;49.366;2023-09-19T06:18:17;2.00;;;1.48;;
67195;SDS011;54122;53.538;49.366;2023-09-19T06:20:46;4.90;;;1.77;;
67195;SDS011;54122;53.538;49.366;2023-09-19T06:23:13;2.47;;;1.63;;
67195;SDS011;54122;53.538;49.366;2023-09-19T06:25:40;3.03;;;1.50;;
67195;SDS011;54122;53.538;49.366;2023-09-19T06:28:06;4.10;;;1.50;;
67195;SDS011;54122;53.538;49.366;2023-09-19T06:30:33;12.52;;;1.70;;
67195;SDS011;54122;53.538;49.366;2023-09-19T06:33:00;6.10;;;1.75;;
67195;SDS011;54122;53.538;49.366;2023-09-19T06:35:26;1.45;;;0.88;;
67195;SDS011;54122;53.538;49.366;2023-09-19T06:37:56;8.32;;;1.73;;
67195;SDS011;54122;53.538;49.366;2023-09-19T06:40:23;2.25;;;1.52;;
67195;SDS011;54122;53.538;49.366;2023-09-19T06:42:52;4.47;;;1.45;;
67195;SDS011;54122;53.538;49.366;2023-09-19T06:45:19;2.67;;;1.77;;
67195;SDS011;54122;53.538;49.366;2023-09-19T06:47:47;3.22;;;1.80;;
67195;SDS011;54122;53.538;49.366;2023-09-19T06:50:16;3.92;;;2.08;;
67195;SDS011;54122;53.538;49.366;2023-09-19T06:52:44;5.70;;;2.08;;
67195;SDS011;54122;53.538;49.366;2023-09-19T06:55:14;2.67;;;1.30;;
67195;SDS011;54122;53.538;49.366;2023-09-19T06:57:42;3.53;;;1.40;;
67195;SDS011;54122;53.538;49.366;2023-09-19T07:00:13;2.28;;;1.30;;
67195;SDS011;54122;53.538;49.366;2023-09-19T07:02:57;2.83;;;1.50;;
67195;SDS011;54122;53.538;49.366;2023-09-19T07:05:32;11.10;;;1.67;;
67195;SDS011;54122;53.538;49.366;2023-09-19T07:08:03;1.65;;;1.20;;
67195;SDS011;54122;53.538;49.366;2023-09-19T07:10:31;3.50;;;1.27;;
67195;SDS011;54122;53.538;49.366;2023-09-19T07:15:26;2.10;;;1.27;;
67195;SDS011;54122;53.538;49.366;2023-09-19T07:17:53;4.68;;;1.17;;
67195;SDS011;54122;53.538;49.366;2023-09-19T07:20:22;3.20;;;1.10;;
67195;SDS011;54122;53.538;49.366;2023-09-19T07:22:52;7.55;;;1.05;;
67195;SDS011;54122;53.538;49.366;2023-09-19T07:25:20;3.33;;;1.35;;
67195;SDS011;54122;53.538;49.366;2023-09-19T07:27:47;3.08;;;1.35;;
67195;SDS011;54122;53.538;49.366;2023-09-19T07:30:13;2.08;;;1.00;;
67195;SDS011;54122;53.538;49.366;2023-09-19T07:32:42;1.75;;;1.05;;
67195;SDS011;54122;53.538;49.366;2023-09-19T07:35:11;3.60;;;1.02;;
67195;SDS011;54122;53.538;49.366;2023-09-19T07:37:37;2.97;;;1.08;;
67195;SDS011;54122;53.538;49.366;2023-09-19T07:40:04;2.63;;;1.10;;
67195;SDS011;54122;53.538;49.366;2023-09-19T07:42:35;1.30;;;0.75;;
67195;SDS011;54122;53.538;49.366;2023-09-19T07:45:05;2.67;;;0.90;;
67195;SDS011;54122;53.538;49.366;2023-09-19T07:47:31;2.95;;;1.00;;
67195;SDS011;54122;53.538;49.366;2023-09-19T07:49:58;1.60;;;0.90;;
67195;SDS011;54122;53.538;49.366;2023-09-19T07:52:28;4.07;;;1.00;;
67195;SDS011;54122;53.538;49.366;2023-09-19T07:54:55;2.10;;;0.80;;
67195;SDS011;54122;53.538;49.366;2023-09-19T07:57:22;1.20;;;0.77;;
67195;SDS011;54122;53.538;49.366;2023-09-19T07:59:49;2.53;;;0.75;;
67195;SDS011;54122;53.538;49.366;2023-09-19T08:02:15;0.93;;;0.60;;
67195;SDS011;54122;53.538;49.366;2023-09-19T08:04:44;1.45;;;0.73;;
67195;SDS011;54122;53.538;49.366;2023-09-19T08:07:14;4.78;;;1.05;;
67195;SDS011;54122;53.538;49.366;2023-09-19T08:09:42;2.45;;;1.10;;
67195;SDS011;54122;53.538;49.366;2023-09-19T08:12:11;5.30;;;1.23;;
67195;SDS011;54122;53.538;49.366;2023-09-19T08:14:38;5.43;;;0.90;;
67195;SDS011;54122;53.538;49.366;2023-09-19T08:17:06;1.77;;;0.80;;
67195;SDS011;54122;53.538;49.366;2023-09-19T08:19:33;1.15;;;0.77;;
67195;SDS011;54122;53.538;49.366;2023-09-19T08:22:00;4.60;;;1.00;;
67195;SDS011;54122;53.538;49.366;2023-09-19T08:24:27;2.05;;;0.93;;
67195;SDS011;54122;53.538;49.366;2023-09-19T08:26:55;2.65;;;1.13;;
67195;SDS011;54122;53.538;49.366;2023-09-19T08:29:22;1.88;;;1.02;;
67195;SDS011;54122;53.538;49.366;2023-09-19T08:31:58;1.30;;;0.70;;
67195;SDS011;54122;53.538;49.366;2023-09-19T08:34:25;1.48;;;0.57;;
67195;SDS011;54122;53.538;49.366;2023-09-19T08:36:52;3.00;;;1.05;;
67195;SDS011;54122;53.538;49.366;2023-09-19T08:39:22;1.13;;;0.60;;
67195;SDS011;54122;53.538;49.366;2023-09-19T08:41:48;2.58;;;0.88;;
67195;SDS011;54122;53.538;49.366;2023-09-19T08:44:15;1.55;;;1.02;;
67195;SDS011;54122;53.538;49.366;2023-09-19T08:46:42;5.40;;;0.73;;
67195;SDS011;54122;53.538;49.366;2023-09-19T08:49:18;2.25;;;0.70;;
67195;SDS011;54122;53.538;49.366;2023-09-19T08:52:28;1.20;;;0.65;;
67195;SDS011;54122;53.538;49.366;2023-09-19T08:55:01;1.95;;;0.88;;
67195;SDS011;54122;53.538;49.366;2023-09-19T08:57:36;0.85;;;0.60;;
67195;SDS011;54122;53.538;49.366;2023-09-19T09:00:07;2.33;;;0.73;;
67195;SDS011;54122;53.538;49.366;2023-09-19T09:02:41;2.17;;;0.90;;
67195;SDS011;54122;53.538;49.366;2023-09-19T09:05:09;2.73;;;0.77;;
67195;SDS011;54122;53.538;49.366;2023-09-19T09:07:40;2.22;;;0.90;;
67195;SDS011;54122;53.538;49.366;2023-09-19T09:10:10;0.85;;;0.73;;
67195;SDS011;54122;53.538;49.366;2023-09-19T09:12:37;3.08;;;1.15;;
67195;SDS011;54122;53.538;49.366;2023-09-19T09:15:06;5.03;;;0.52;;
67195;SDS011;54122;53.538;49.366;2023-09-19T09:17:37;1.55;;;0.80;;
67195;SDS011;54122;53.538;49.366;2023-09-19T09:20:04;1.83;;;0.80;;
67195;SDS011;54122;53.538;49.366;2023-09-19T09:22:34;3.88;;;0.98;;
67195;SDS011;54122;53.538;49.366;2023-09-19T09:25:02;6.80;;;0.80;;
67195;SDS011;54122;53.538;49.366;2023-09-19T09:27:30;2.78;;;1.02;;
67195;SDS011;54122;53.538;49.366;2023-09-19T09:29:58;1.48;;;0.70;;
67195;SDS011;54122;53.538;49.366;2023-09-19T09:32:26;1.05;;;0.70;;
67195;SDS011;54122;53.538;49.366;2023-09-19T09:35:03;3.00;;;0.60;;
67195;SDS011;54122;53.538;49.366;2023-09-19T09:37:36;1.60;;;0.75;;
67195;SDS011;54122;53.538;49.366;2023-09-19T09:40:04;3.25;;;0.95;;
67195;SDS011;54122;53.538;49.366;2023-09-19T09:42:40;1.17;;;0.63;;
67195;SDS011;54122;53.538;49.366;2023-09-19T09:45:20;1.80;;;0.70;;
67195;SDS011;54122;53.538;49.366;2023-09-19T09:48:00;14.20;;;1.02;;
67195;SDS011;54122;53.538;49.366;2023-09-19T09:50:45;3.03;;;0.52;;
67195;SDS011;54122;53.538;49.366;2023-09-19T09:56:04;3.70;;;0.60;;
67195;SDS011;54122;53.538;49.366;2023-09-19T09:58:50;1.98;;;0.70;;
67195;SDS011;54122;53.538;49.366;2023-09-19T10:01:24;1.48;;;0.77;;
67195;SDS011;54122;53.538;49.366;2023-09-19T10:07:03;3.53;;;0.90;;
67195;SDS011;54122;53.538;49.366;2023-09-19T10:09:46;5.72;;;0.55;;
67195;SDS011;54122;53.538;49.366;2023-09-19T10:12:17;1.42;;;0.57;;
67195;SDS011;54122;53.538;49.366;2023-09-19T10:14:47;3.03;;;0.70;;
67195;SDS011;54122;53.538;49.366;2023-09-19T10:17:16;1.33;;;0.57;;
67195;SDS011;54122;53.538;49.366;2023-09-19T10:19:56;1.77;;;0.70;;
67195;SDS011;54122;53.538;49.366;2023-09-19T10:22:27;3.88;;;0.60;;
67195;SDS011;54122;53.538;49.366;2023-09-19T10:24:59;0.82;;;0.63;;
67195;SDS011;54122;53.538;49.366;2023-09-19T10:27:26;6.70;;;0.40;;
67195;SDS011;54122;53.538;49.366;2023-09-19T10:30:06;1.15;;;0.50;;
67195;SDS011;54122;53.538;49.366;2023-09-19T10:32:35;7.55;;;0.40;;
67195;SDS011;54122;53.538;49.366;2023-09-19T10:35:07;0.88;;;0.52;;
67195;SDS011;54122;53.538;49.366;2023-09-19T10:37:36;0.95;;;0.57;;
67195;SDS011;54122;53.538;49.366;2023-09-19T10:40:08;1.92;;;0.75;;
67195;SDS011;54122;53.538;49.366;2023-09-19T10:42:38;0.60;;;0.40;;
67195;SDS011;54122;53.538;49.366;2023-09-19T10:45:10;1.92;;;0.30;;
67195;SDS011;54122;53.538;49.366;2023-09-19T10:47:40;4.28;;;0.30;;
67195;SDS011;54122;53.538;49.366;2023-09-19T10:50:18;0.90;;;0.40;;
67195;SDS011;54122;53.538;49.366;2023-09-19T10:52:47;1.23;;;0.40;;
67195;SDS011;54122;53.538;49.366;2023-09-19T10:55:17;1.35;;;0.55;;
67195;SDS011;54122;53.538;49.366;2023-09-19T10:57:45;0.73;;;0.32;;
67195;SDS011;54122;53.538;49.366;2023-09-19T11:00:15;2.58;;;0.55;;
67195;SDS011;54122;53.538;49.366;2023-09-19T11:05:40;1.45;;;0.68;;
67195;SDS011;54122;53.538;49.366;2023-09-19T11:09:14;5.60;;;0.65;;
67195;SDS011;54122;53.538;49.366;2023-09-19T11:28:27;2.53;;;0.52;;
67195;SDS011;54122;53.538;49.366;2023-09-19T11:30:56;1.58;;;0.40;;
67195;SDS011;54122;53.538;49.366;2023-09-19T11:35:59;1.80;;;0.47;;
67195;SDS011;54122;53.538;49.366;2023-09-19T11:46:33;0.45;;;0.30;;
67195;SDS011;54122;53.538;49.366;2023-09-19T11:49:09;1.00;;;0.40;;
67195;SDS011;54122;53.538;49.366;2023-09-19T11:51:41;7.00;;;0.50;;
67195;SDS011;54122;53.538;49.366;2023-09-19T11:54:13;3.92;;;0.45;;
67195;SDS011;54122;53.538;49.366;2023-09-19T11:56:51;3.70;;;0.75;;
67195;SDS011;54122;53.538;49.366;2023-09-19T11:59:20;2.33;;;0.55;;
67195;SDS011;54122;53.538;49.366;2023-09-19T12:01:51;1.23;;;0.43;;
67195;SDS011;54122;53.538;49.366;2023-09-19T12:04:34;4.00;;;0.55;;
67195;SDS011;54122;53.538;49.366;2023-09-19T12:07:08;9.73;;;0.50;;
67195;SDS011;54122;53.538;49.366;2023-09-19T12:09:45;5.47;;;1.02;;
67195;SDS011;54122;53.538;49.366;2023-09-19T12:12:19;0.95;;;0.35;;
67195;SDS011;54122;53.538;49.366;2023-09-19T12:14:51;1.85;;;0.50;;
67195;SDS011;54122;53.538;49.366;2023-09-19T12:17:18;0.43;;;0.17;;
67195;SDS011;54122;53.538;49.366;2023-09-19T12:19:52;6.03;;;0.55;;
67195;SDS011;54122;53.538;49.366;2023-09-19T12:22:25;1.20;;;0.50;;
67195;SDS011;54122;53.538;49.366;2023-09-19T12:25:08;0.85;;;0.30;;
67195;SDS011;54122;53.538;49.366;2023-09-19T12:30:12;12.43;;;0.57;;
67195;SDS011;54122;53.538;49.366;2023-09-19T12:32:48;1.27;;;1.17;;
67195;SDS011;54122;53.538;49.366;2023-09-19T12:35:27;1.13;;;0.40;;
67195;SDS011;54122;53.538;49.366;2023-09-19T12:37:59;0.50;;;0.30;;
67195;SDS011;54122;53.538;49.366;2023-09-19T12:40:25;1.70;;;0.68;;
67195;SDS011;54122;53.538;49.366;2023-09-19T12:42:55;0.50;;;0.30;;
67195;SDS011;54122;53.538;49.366;2023-09-19T12:45:32;1.17;;;0.50;;
67195;SDS011;54122;53.538;49.366;2023-09-19T12:51:06;2.22;;;1.08;;
67195;SDS011;54122;53.538;49.366;2023-09-19T12:56:16;7.18;;;1.00;;
67195;SDS011;54122;53.538;49.366;2023-09-19T12:58:52;3.97;;;0.80;;
67195;SDS011;54122;53.538;49.366;2023-09-19T13:01:24;2.40;;;0.90;;
67195;SDS011;54122;53.538;49.366;2023-09-19T13:06:53;1.40;;;0.80;;
67195;SDS011;54122;53.538;49.366;2023-09-19T13:09:21;9.45;;;1.25;;
67195;SDS011;54122;53.538;49.366;2023-09-19T13:11:54;0.77;;;0.50;;
67195;SDS011;54122;53.538;49.366;2023-09-19T13:14:25;4.32;;;0.50;;
67195;SDS011;54122;53.538;49.366;2023-09-19T13:17:07;1.77;;;0.90;;
67195;SDS011;54122;53.538;49.366;2023-09-19T13:19:45;2.88;;;0.47;;
67195;SDS011;54122;53.538;49.366;2023-09-19T13:25:21;3.55;;;0.90;;
67195;SDS011;54122;53.538;49.366;2023-09-19T13:27:56;5.93;;;0.82;;
67195;SDS011;54122;53.538;49.366;2023-09-19T13:30:30;2.17;;;0.93;;
67195;SDS011;54122;53.538;49.366;2023-09-19T13:33:10;2.20;;;1.13;;
67195;SDS011;54122;53.538;49.366;2023-09-19T13:35:39;9.43;;;1.58;;
67195;SDS011;54122;53.538;49.366;2023-09-19T13:38:06;1.83;;;0.70;;
67195;SDS011;54122;53.538;49.366;2023-09-19T13:40:40;1.70;;;0.65;;
67195;SDS011;54122;53.538;49.366;2023-09-19T13:43:13;3.00;;;0.60;;
67195;SDS011;54122;53.538;49.366;2023-09-19T13:45:40;7.38;;;0.80;;
67195;SDS011;54122;53.538;49.366;2023-09-19T13:48:10;2.13;;;0.63;;
67195;SDS011;54122;53.538;49.366;2023-09-19T13:50:48;2.95;;;0.68;;
67195;SDS011;54122;53.538;49.366;2023-09-19T13:53:15;0.75;;;0.40;;
67195;SDS011;54122;53.538;49.366;2023-09-19T13:55:42;8.10;;;3.55;;
67195;SDS011;54122;53.538;49.366;2023-09-19T13:58:14;1.77;;;0.80;;
67195;SDS011;54122;53.538;49.366;2023-09-19T14:00:41;1.67;;;0.70;;
67195;SDS011;54122;53.538;49.366;2023-09-19T14:03:14;2.45;;;1.17;;
67195;SDS011;54122;53.538;49.366;2023-09-19T14:08:20;1.00;;;0.60;;
67195;SDS011;54122;53.538;49.366;2023-09-19T14:10:47;1.13;;;0.52;;
67195;SDS011;54122;53.538;49.366;2023-09-19T14:13:19;1.58;;;0.68;;
67195;SDS011;54122;53.538;49.366;2023-09-19T14:15:46;1.92;;;0.98;;
67195;SDS011;54122;53.538;49.366;2023-09-19T14:18:13;5.03;;;2.33;;
67195;SDS011;54122;53.538;49.366;2023-09-19T14:20:39;11.77;;;4.75;;
67195;SDS011;54122;53.538;49.366;2023-09-19T14:23:07;3.83;;;2.33;;
67195;SDS011;54122;53.538;49.366;2023-09-19T14:25:34;5.80;;;1.30;;
67195;SDS011;54122;53.538;49.366;2023-09-19T14:28:02;11.48;;;1.20;;
67195;SDS011;54122;53.538;49.366;2023-09-19T14:30:29;3.47;;;1.48;;
67195;SDS011;54122;53.538;49.366;2023-09-19T14:32:55;5.72;;;1.30;;
67195;SDS011;54122;53.538;49.366;2023-09-19T14:35:23;3.80;;;1.23;;
67195;SDS011;54122;53.538;49.366;2023-09-19T14:37:50;7.85;;;1.33;;
67195;SDS011;54122;53.538;49.366;2023-09-19T14:40:17;6.72;;;1.10;;
67195;SDS011;54122;53.538;49.366;2023-09-19T14:42:43;4.57;;;1.15;;
67195;SDS011;54122;53.538;49.366;2023-09-19T14:45:11;5.20;;;1.30;;
67195;SDS011;54122;53.538;49.366;2023-09-19T14:47:37;3.88;;;1.17;;
67195;SDS011;54122;53.538;49.366;2023-09-19T14:50:03;8.27;;;1.70;;
67195;SDS011;54122;53.538;49.366;2023-09-19T14:52:34;4.75;;;1.95;;
67195;SDS011;54122;53.538;49.366;2023-09-19T14:55:01;4.97;;;1.85;;
67195;SDS011;54122;53.538;49.366;2023-09-19T14:57:29;5.07;;;2.00;;
67195;SDS011;54122;53.538;49.366;2023-09-19T14:59:56;6.57;;;2.45;;
67195;SDS011;54122;53.538;49.366;2023-09-19T15:02:25;6.93;;;2.67;;
67195;SDS011;54122;53.538;49.366;2023-09-19T15:04:55;6.25;;;2.50;;
67195;SDS011;54122;53.538;49.366;2023-09-19T15:07:21;8.20;;;2.55;;
67195;SDS011;54122;53.538;49.366;2023-09-19T15:09:52;6.35;;;2.83;;
67195;SDS011;54122;53.538;49.366;2023-09-19T15:12:18;16.05;;;2.53;;
67195;SDS011;54122;53.538;49.366;2023-09-19T15:14:44;9.73;;;3.08;;
67195;SDS011;54122;53.538;49.366;2023-09-19T15:17:11;6.70;;;2.30;;
67195;SDS011;54122;53.538;49.366;2023-09-19T15:19:37;11.80;;;2.60;;
67195;SDS011;54122;53.538;49.366;2023-09-19T15:22:03;8.35;;;2.70;;
67195;SDS011;54122;53.538;49.366;2023-09-19T15:24:31;6.15;;;2.38;;
67195;SDS011;54122;53.538;49.366;2023-09-19T15:26:57;8.18;;;3.35;;
67195;SDS011;54122;53.538;49.366;2023-09-19T15:29:23;8.00;;;3.13;;
67195;SDS011;54122;53.538;49.366;2023-09-19T15:31:50;5.72;;;2.20;;
67195;SDS011;54122;53.538;49.366;2023-09-19T15:34:16;5.70;;;2.95;;
67195;SDS011;54122;53.538;49.366;2023-09-19T15:36:42;9.73;;;2.97;;
67195;SDS011;54122;53.538;49.366;2023-09-19T15:39:09;7.72;;;2.80;;
67195;SDS011;54122;53.538;49.366;2023-09-19T15:41:37;4.65;;;2.75;;
67195;SDS011;54122;53.538;49.366;2023-09-19T15:44:10;9.80;;;3.47;;
67195;SDS011;54122;53.538;49.366;2023-09-19T15:46:45;9.43;;;2.90;;
67195;SDS011;54122;53.538;49.366;2023-09-19T15:49:12;11.75;;;2.65;;
67195;SDS011;54122;53.538;49.366;2023-09-19T15:51:38;11.02;;;3.22;;
67195;SDS011;54122;53.538;49.366;2023-09-19T15:54:12;26.10;;;13.48;;
67195;SDS011;54122;53.538;49.366;2023-09-19T15:56:42;15.95;;;7.65;;
67195;SDS011;54122;53.538;49.366;2023-09-19T15:59:10;17.38;;;5.88;;
67195;SDS011;54122;53.538;49.366;2023-09-19T16:01:40;7.10;;;2.53;;
67195;SDS011;54122;53.538;49.366;2023-09-19T16:04:09;9.18;;;2.50;;
67195;SDS011;54122;53.538;49.366;2023-09-19T16:06:36;9.52;;;2.60;;